createdAt,value
2023-03-06T00:01:28.832Z,17.40
2023-03-06T00:04:00.647Z,16.70
2023-03-06T00:06:32.756Z,17.30
2023-03-06T00:09:04.758Z,15.00
2023-03-06T00:11:37.170Z,15.60
2023-03-06T00:14:08.919Z,14.10
2023-03-06T00:16:40.584Z,15.50
2023-03-06T00:19:12.356Z,11.20
2023-03-06T00:21:44.646Z,14.80
2023-03-06T00:24:16.876Z,14.30
2023-03-06T00:26:48.615Z,14.00
2023-03-06T00:29:20.888Z,14.70
2023-03-06T00:31:52.567Z,15.10
2023-03-06T00:34:24.696Z,15.80
2023-03-06T00:36:56.464Z,14.90
2023-03-06T00:39:28.206Z,15.50
2023-03-06T00:41:59.955Z,13.70
2023-03-06T00:44:31.872Z,14.00
2023-03-06T00:47:03.639Z,15.30
2023-03-06T00:49:36.547Z,15.80
2023-03-06T00:54:39.557Z,15.60
2023-03-06T00:59:42.474Z,14.90
2023-03-06T01:02:15.108Z,15.20
2023-03-06T01:07:17.633Z,15.20
2023-03-06T01:09:49.417Z,12.30
2023-03-06T01:12:23.400Z,15.10
2023-03-06T01:14:55.940Z,16.20
2023-03-06T01:17:27.705Z,16.40
2023-03-06T01:19:59.615Z,12.80
2023-03-06T01:22:31.488Z,16.10
2023-03-06T01:25:04.917Z,15.50
2023-03-06T01:27:36.852Z,15.70
2023-03-06T01:30:10.651Z,14.60
2023-03-06T01:32:43.139Z,15.10
2023-03-06T01:35:15.449Z,15.90
2023-03-06T01:37:47.135Z,14.80
2023-03-06T01:40:18.845Z,11.40
2023-03-06T01:42:52.231Z,15.20
2023-03-06T01:45:58.744Z,15.50
2023-03-06T01:48:30.504Z,14.70
2023-03-06T01:51:02.586Z,16.00
2023-03-06T01:53:35.069Z,16.40
2023-03-06T01:58:39.100Z,16.20
2023-03-06T02:01:12.596Z,16.30
2023-03-06T02:03:46.554Z,16.10
2023-03-06T02:06:21.671Z,19.40
2023-03-06T02:08:55.286Z,16.90
2023-03-06T02:11:27.410Z,18.40
2023-03-06T02:13:59.388Z,18.50
2023-03-06T02:16:34.082Z,18.60
2023-03-06T02:19:08.754Z,17.90
2023-03-06T02:21:40.759Z,18.10
2023-03-06T02:24:25.201Z,18.70
2023-03-06T02:27:00.113Z,19.10
2023-03-06T02:29:33.291Z,19.90
2023-03-06T02:32:07.791Z,17.70
2023-03-06T02:34:56.486Z,19.00
2023-03-06T02:37:30.162Z,18.80
2023-03-06T02:40:12.217Z,18.80
2023-03-06T02:42:50.118Z,19.50
2023-03-06T02:45:27.103Z,19.00
2023-03-06T02:47:58.772Z,19.10
2023-03-06T02:50:30.824Z,18.70
2023-03-06T02:53:02.895Z,13.40
2023-03-06T02:55:36.631Z,20.40
2023-03-06T02:58:09.146Z,18.90
2023-03-06T03:00:41.186Z,18.60
2023-03-06T03:03:13.980Z,18.30
2023-03-06T03:05:46.139Z,18.60
2023-03-06T03:08:24.375Z,17.00
2023-03-06T03:10:59.722Z,18.20
2023-03-06T03:13:34.661Z,18.50
2023-03-06T03:18:39.058Z,19.30
2023-03-06T03:21:13.548Z,20.50
2023-03-06T03:23:46.215Z,18.50
2023-03-06T03:26:20.072Z,17.30
2023-03-06T03:29:04.956Z,16.80
2023-03-06T03:31:36.797Z,17.70
2023-03-06T03:34:08.703Z,16.60
2023-03-06T03:36:42.671Z,16.00
2023-03-06T03:41:45.916Z,16.60
2023-03-06T03:44:18.021Z,16.30
2023-03-06T03:46:50.218Z,16.30
2023-03-06T03:49:25.148Z,16.50
2023-03-06T03:51:57.915Z,16.60
2023-03-06T03:54:30.255Z,15.10
2023-03-06T03:57:02.417Z,15.40
2023-03-06T03:59:37.551Z,16.30
2023-03-06T04:02:32.812Z,14.60
2023-03-06T04:05:14.592Z,15.90
2023-03-06T04:07:46.702Z,14.30
2023-03-06T04:10:19.337Z,15.80
2023-03-06T04:12:52.831Z,14.50
2023-03-06T04:17:55.188Z,14.50
2023-03-06T04:20:29.277Z,16.00
2023-03-06T04:23:01.767Z,15.60
2023-03-06T04:25:34.015Z,14.40
2023-03-06T04:28:08.988Z,14.50
2023-03-06T04:30:41.097Z,14.50
2023-03-06T04:33:13.191Z,15.40
2023-03-06T04:35:45.826Z,14.70
2023-03-06T04:38:21.557Z,14.40
2023-03-06T04:40:53.310Z,15.00
2023-03-06T04:43:25.834Z,14.90
2023-03-06T04:45:58.879Z,14.30
2023-03-06T04:48:30.855Z,14.60
2023-03-06T04:51:02.568Z,14.20
2023-03-06T04:53:34.284Z,13.20
2023-03-06T04:56:07.233Z,14.00
2023-03-06T04:58:39.252Z,13.00
2023-03-06T05:01:11.314Z,12.90
2023-03-06T05:03:43.177Z,13.10
2023-03-06T05:06:14.966Z,13.00
2023-03-06T05:08:46.860Z,12.50
2023-03-06T05:11:18.576Z,10.60
2023-03-06T05:13:50.429Z,10.10
2023-03-06T05:16:22.165Z,6.50
2023-03-06T05:18:53.936Z,7.90
2023-03-06T05:21:25.640Z,8.00
2023-03-06T05:23:57.386Z,5.80
2023-03-06T05:26:29.193Z,6.60
2023-03-06T05:29:01.296Z,5.80
2023-03-06T05:31:33.269Z,6.10
2023-03-06T05:34:05.162Z,5.70
2023-03-06T05:36:36.894Z,5.00
2023-03-06T05:39:08.759Z,4.50
2023-03-06T05:41:40.498Z,4.80
2023-03-06T05:44:12.683Z,3.80
2023-03-06T05:46:44.433Z,4.30
2023-03-06T05:49:16.417Z,4.40
2023-03-06T05:51:48.181Z,4.80
2023-03-06T05:54:19.873Z,3.30
2023-03-06T05:56:52.571Z,4.20
2023-03-06T05:59:28.041Z,4.00
2023-03-06T06:02:01.161Z,3.60
2023-03-06T06:04:33.234Z,3.60
2023-03-06T06:07:05.924Z,4.10
2023-03-06T06:09:38.120Z,4.40
2023-03-06T06:12:10.892Z,3.80
2023-03-06T06:14:43.140Z,3.60
2023-03-06T06:17:16.554Z,2.80
2023-03-06T06:19:48.518Z,2.70
2023-03-06T06:22:20.246Z,2.60
2023-03-06T06:24:52.189Z,3.20
2023-03-06T06:27:24.030Z,2.40
2023-03-06T06:29:55.975Z,1.80
2023-03-06T06:32:28.011Z,2.00
2023-03-06T06:35:00.008Z,2.30
2023-03-06T06:37:32.603Z,2.40
2023-03-06T06:40:04.606Z,2.70
2023-03-06T06:42:39.896Z,2.70
2023-03-06T06:45:13.863Z,2.30
2023-03-06T06:47:46.450Z,2.60
2023-03-06T06:52:48.512Z,2.60
2023-03-06T06:55:20.349Z,2.90
2023-03-06T06:57:52.437Z,2.00
2023-03-06T07:00:25.967Z,2.70
2023-03-06T07:02:58.029Z,3.00
2023-03-06T07:05:29.872Z,3.00
2023-03-06T07:08:01.818Z,2.90
2023-03-06T07:10:33.699Z,2.30
2023-03-06T07:13:06.297Z,3.40
2023-03-06T07:15:38.076Z,3.30
2023-03-06T07:18:09.889Z,3.00
2023-03-06T07:20:41.770Z,4.30
2023-03-06T07:23:15.205Z,3.60
2023-03-06T07:25:46.984Z,5.20
2023-03-06T07:28:19.734Z,5.90
2023-03-06T07:33:23.157Z,6.90
2023-03-06T07:35:55.207Z,6.90
2023-03-06T07:38:26.982Z,8.20
2023-03-06T07:40:58.752Z,7.40
2023-03-06T07:43:30.598Z,8.60
2023-03-06T07:46:06.534Z,8.70
2023-03-06T07:48:39.038Z,8.80
2023-03-06T07:53:43.317Z,10.80
2023-03-06T07:56:15.445Z,7.50
2023-03-06T07:58:48.874Z,10.10
2023-03-06T08:01:23.658Z,7.90
2023-03-06T08:03:56.038Z,6.10
2023-03-06T08:06:28.928Z,5.90
2023-03-06T08:11:33.284Z,2.90
2023-03-06T08:14:05.579Z,2.70
2023-03-06T08:16:37.497Z,3.30
2023-03-06T08:19:10.028Z,2.90
2023-03-06T08:21:42.362Z,3.60
2023-03-06T08:24:16.523Z,5.40
2023-03-06T08:26:48.616Z,4.10
2023-03-06T08:29:20.662Z,5.40
2023-03-06T08:31:52.843Z,4.50
2023-03-06T08:34:26.273Z,5.80
2023-03-06T08:36:58.185Z,6.40
2023-03-06T08:39:30.683Z,6.60
2023-03-06T08:44:48.744Z,5.90
2023-03-06T08:47:21.425Z,6.50
2023-03-06T08:52:23.469Z,6.10
2023-03-06T08:54:55.560Z,6.00
2023-03-06T08:57:27.451Z,6.90
2023-03-06T09:00:04.806Z,6.30
2023-03-06T09:02:40.338Z,5.80
2023-03-06T09:05:13.235Z,5.70
2023-03-06T09:10:18.424Z,6.30
2023-03-06T09:12:53.098Z,5.70
2023-03-06T09:15:27.187Z,11.60
2023-03-06T09:20:29.807Z,11.10
2023-03-06T09:23:01.806Z,7.90
2023-03-06T09:25:33.640Z,8.00
2023-03-06T09:28:11.610Z,8.60
2023-03-06T09:30:44.499Z,8.60
2023-03-06T09:33:17.004Z,13.60
2023-03-06T09:35:51.974Z,10.00
2023-03-06T09:38:26.807Z,9.80
2023-03-06T09:41:09.698Z,10.60
2023-03-06T09:47:00.093Z,14.50
2023-03-06T09:49:45.897Z,11.80
2023-03-06T09:52:31.785Z,11.60
2023-03-06T09:55:12.566Z,14.10
2023-03-06T09:57:53.476Z,11.70
2023-03-06T10:00:31.192Z,11.30
2023-03-06T10:03:17.222Z,12.00
2023-03-06T10:05:56.146Z,13.00
2023-03-06T10:08:35.820Z,13.80
2023-03-06T10:11:11.060Z,13.90
2023-03-06T10:13:46.906Z,14.60
2023-03-06T10:16:27.840Z,16.10
2023-03-06T10:19:04.451Z,17.10
2023-03-06T10:21:44.806Z,18.80
2023-03-06T10:24:31.500Z,19.00
2023-03-06T10:27:12.925Z,18.20
2023-03-06T10:30:02.833Z,19.40
2023-03-06T10:32:49.140Z,19.20
2023-03-06T10:35:30.527Z,19.00
2023-03-06T10:38:19.682Z,22.10
2023-03-06T10:41:09.759Z,20.50
2023-03-06T10:43:43.558Z,20.50
2023-03-06T10:46:28.000Z,20.00
2023-03-06T10:49:02.637Z,20.80
2023-03-06T10:51:35.578Z,20.50
2023-03-06T10:56:51.314Z,20.00
2023-03-06T10:59:25.687Z,19.00
2023-03-06T11:02:14.672Z,20.00
2023-03-06T11:04:52.462Z,18.30
2023-03-06T11:07:26.356Z,17.50
2023-03-06T11:10:18.029Z,17.60
2023-03-06T11:13:00.532Z,17.40
2023-03-06T11:15:33.047Z,18.20
2023-03-06T11:18:23.634Z,16.40
2023-03-06T11:20:56.596Z,17.70
2023-03-06T11:23:38.414Z,17.60
2023-03-06T11:26:31.046Z,17.80
2023-03-06T11:29:13.165Z,17.90
2023-03-06T11:31:52.240Z,15.80
2023-03-06T11:34:32.816Z,16.10
2023-03-06T11:37:11.708Z,14.20
2023-03-06T11:39:50.774Z,15.20
2023-03-06T11:42:27.502Z,15.80
2023-03-06T11:45:10.207Z,16.40
2023-03-06T11:47:45.447Z,15.30
2023-03-06T11:50:23.047Z,14.80
2023-03-06T11:52:58.142Z,13.20
2023-03-06T11:55:40.686Z,13.90
2023-03-06T11:58:51.266Z,13.50
2023-03-06T12:01:33.835Z,14.70
2023-03-06T12:04:34.097Z,14.60
2023-03-06T12:07:20.793Z,12.60
2023-03-06T12:13:08.100Z,11.60
2023-03-06T12:15:59.787Z,11.50
2023-03-06T12:18:43.974Z,11.30
2023-03-06T12:21:26.614Z,11.10
2023-03-06T12:24:11.011Z,11.00
2023-03-06T12:27:10.014Z,11.50
2023-03-06T12:30:05.058Z,10.10
2023-03-06T12:32:49.525Z,10.60
2023-03-06T12:35:36.933Z,9.90
2023-03-06T12:38:25.889Z,9.20
2023-03-06T12:41:18.194Z,8.30
2023-03-06T12:44:07.313Z,8.60
2023-03-06T12:46:44.568Z,8.00
2023-03-06T12:49:32.080Z,8.90
2023-03-06T12:52:08.894Z,8.10
2023-03-06T12:54:43.804Z,9.40
2023-03-06T12:59:51.030Z,9.40
2023-03-06T13:05:28.320Z,7.40
2023-03-06T13:08:31.083Z,8.50
2023-03-06T13:11:31.694Z,8.70
2023-03-06T13:14:25.323Z,9.00
2023-03-06T13:17:17.290Z,10.10
2023-03-06T13:19:49.695Z,9.20
2023-03-06T13:22:31.026Z,9.10
2023-03-06T13:25:39.019Z,9.30
2023-03-06T13:28:26.018Z,9.50
2023-03-06T13:30:57.860Z,10.50
2023-03-06T13:33:53.362Z,10.10
2023-03-06T13:36:31.413Z,8.70
2023-03-06T13:39:19.656Z,11.40
2023-03-06T13:42:01.428Z,10.20
2023-03-06T13:44:53.035Z,10.40
2023-03-06T13:47:55.743Z,10.00
2023-03-06T13:50:35.514Z,9.50
2023-03-06T13:53:25.065Z,8.30
2023-03-06T13:56:12.892Z,8.10
2023-03-06T13:58:59.313Z,8.50
2023-03-06T14:01:43.123Z,7.90
2023-03-06T14:04:37.149Z,8.50
2023-03-06T14:07:28.042Z,8.80
2023-03-06T14:10:20.186Z,11.60
2023-03-06T14:13:05.321Z,13.60
2023-03-06T14:15:45.145Z,10.90
2023-03-06T14:18:21.287Z,8.30
2023-03-06T14:20:58.638Z,7.30
2023-03-06T14:23:35.208Z,7.70
2023-03-06T14:26:15.189Z,7.40
2023-03-06T14:28:56.511Z,7.50
2023-03-06T14:31:34.602Z,8.00
2023-03-06T14:34:08.221Z,7.20
2023-03-06T14:36:46.457Z,8.50
2023-03-06T14:39:23.794Z,9.40
2023-03-06T14:42:07.876Z,8.80
2023-03-06T14:44:40.838Z,8.70
2023-03-06T14:47:24.537Z,8.70
2023-03-06T14:50:21.627Z,9.00
2023-03-06T14:52:57.562Z,9.00
2023-03-06T14:55:31.447Z,8.50
2023-03-06T14:58:08.886Z,9.10
2023-03-06T15:00:44.574Z,8.60
2023-03-06T15:03:21.361Z,11.70
2023-03-06T15:05:53.918Z,9.50
2023-03-06T15:08:30.057Z,9.20
2023-03-06T15:11:03.983Z,8.40
2023-03-06T15:13:36.508Z,8.50
2023-03-06T15:16:23.425Z,8.50
2023-03-06T15:19:00.179Z,8.40
2023-03-06T15:21:36.399Z,8.50
2023-03-06T15:24:32.438Z,8.80
2023-03-06T15:27:06.677Z,7.80
2023-03-06T15:29:40.967Z,7.70
2023-03-06T15:32:33.491Z,7.60
2023-03-06T15:35:30.347Z,8.60
2023-03-06T15:38:03.089Z,8.00
2023-03-06T15:40:35.611Z,8.50
2023-03-06T15:43:12.861Z,7.30
2023-03-06T15:45:44.793Z,8.60
2023-03-06T15:48:19.624Z,8.60
2023-03-06T15:50:51.525Z,9.00
2023-03-06T15:53:23.621Z,8.40
2023-03-06T15:55:55.888Z,8.60
2023-03-06T15:58:30.488Z,8.00
2023-03-06T16:01:04.025Z,7.90
2023-03-06T16:03:36.085Z,8.80
2023-03-06T16:06:10.566Z,9.70
2023-03-06T16:08:42.329Z,9.00
2023-03-06T16:11:18.144Z,6.20
2023-03-06T16:13:49.880Z,9.80
2023-03-06T16:16:25.614Z,9.40
2023-03-06T16:18:57.890Z,9.60
2023-03-06T16:21:29.992Z,10.00
2023-03-06T16:24:02.572Z,10.90
2023-03-06T16:26:36.270Z,11.00
2023-03-06T16:29:08.466Z,11.90
2023-03-06T16:31:44.644Z,11.30
2023-03-06T16:34:17.613Z,10.00
2023-03-06T16:36:50.269Z,9.30
2023-03-06T16:39:24.055Z,11.00
2023-03-06T16:41:56.337Z,9.80
2023-03-06T16:44:28.271Z,10.10
2023-03-06T16:47:02.999Z,10.80
2023-03-06T16:49:39.512Z,12.10
2023-03-06T16:52:14.561Z,14.00
2023-03-06T16:54:46.586Z,14.50
2023-03-06T16:57:18.492Z,13.40
2023-03-06T16:59:51.442Z,13.50
2023-03-06T17:02:23.815Z,14.20
2023-03-06T17:07:29.420Z,12.40
2023-03-06T17:10:01.970Z,14.10
2023-03-06T17:15:06.012Z,14.00
2023-03-06T17:17:38.943Z,16.30
2023-03-06T17:20:17.561Z,16.20
2023-03-06T17:22:50.060Z,14.20
2023-03-06T17:25:22.445Z,13.90
2023-03-06T17:27:54.385Z,14.20
2023-03-06T17:30:26.842Z,13.70
2023-03-06T17:35:30.577Z,16.10
2023-03-06T17:38:03.743Z,17.70
2023-03-06T17:40:36.258Z,15.80
2023-03-06T17:43:08.549Z,16.60
2023-03-06T17:45:41.150Z,19.40
2023-03-06T17:48:13.587Z,19.00
2023-03-06T17:50:53.261Z,19.30
2023-03-06T17:53:25.407Z,20.30
2023-03-06T17:55:58.126Z,20.10
2023-03-06T17:58:30.010Z,19.60
2023-03-06T18:01:02.050Z,20.80
2023-03-06T18:03:34.207Z,22.80
2023-03-06T18:06:09.358Z,22.00
2023-03-06T18:08:41.783Z,23.60
2023-03-06T18:11:15.799Z,22.50
2023-03-06T18:14:05.542Z,21.90
2023-03-06T18:16:39.096Z,21.90
2023-03-06T18:19:12.591Z,22.90
2023-03-06T18:21:47.358Z,24.60
2023-03-06T18:24:19.827Z,21.20
2023-03-06T18:26:52.285Z,20.50
2023-03-06T18:29:24.300Z,20.70
2023-03-06T18:31:58.732Z,21.80
2023-03-06T18:34:30.740Z,20.90
2023-03-06T18:37:02.643Z,20.40
2023-03-06T18:39:34.691Z,17.20
2023-03-06T18:42:07.465Z,21.50
2023-03-06T18:44:39.654Z,24.00
2023-03-06T18:47:12.277Z,22.10
2023-03-06T18:52:19.835Z,20.40
2023-03-06T18:54:53.507Z,23.60
2023-03-06T18:57:25.680Z,24.30
2023-03-06T18:59:58.433Z,23.80
2023-03-06T19:02:31.550Z,24.80
2023-03-06T19:05:04.685Z,23.90
2023-03-06T19:07:37.783Z,24.40
2023-03-06T19:10:12.212Z,25.10
2023-03-06T19:12:44.965Z,24.90
2023-03-06T19:15:17.787Z,25.30
2023-03-06T19:17:52.244Z,26.10
2023-03-06T19:20:26.060Z,26.10
2023-03-06T19:22:58.319Z,26.30
2023-03-06T19:25:30.493Z,25.70
2023-03-06T19:28:02.951Z,27.50
2023-03-06T19:30:34.905Z,29.20
2023-03-06T19:33:12.934Z,23.30
2023-03-06T19:44:31.371Z,32.40
2023-03-06T19:48:34.301Z,33.90
2023-03-06T19:51:10.221Z,36.50
2023-03-06T19:53:42.868Z,37.40
2023-03-06T19:56:20.945Z,37.60
2023-03-06T19:58:56.382Z,40.30
2023-03-06T20:01:35.252Z,37.50
2023-03-06T20:04:09.394Z,35.70
2023-03-06T20:06:54.044Z,37.60
2023-03-06T20:09:26.994Z,33.70
2023-03-06T20:11:59.545Z,33.70
2023-03-06T20:17:02.742Z,30.40
2023-03-06T20:19:35.291Z,30.70
2023-03-06T20:22:07.293Z,33.30
2023-03-06T20:24:39.496Z,32.60
2023-03-06T20:27:11.741Z,33.60
2023-03-06T20:29:45.629Z,26.00
2023-03-06T20:32:17.739Z,37.90
2023-03-06T20:34:50.330Z,35.10
2023-03-06T20:37:22.342Z,37.50
2023-03-06T20:39:54.244Z,41.30
2023-03-06T20:42:26.333Z,41.90
2023-03-06T20:45:01.137Z,44.50
2023-03-06T20:47:33.214Z,41.90
2023-03-06T20:50:05.405Z,44.40
2023-03-06T20:52:37.294Z,43.20
2023-03-06T20:55:10.711Z,40.40
2023-03-06T20:57:43.243Z,43.10
2023-03-06T21:00:19.041Z,41.70
2023-03-06T21:02:51.108Z,39.90
2023-03-06T21:05:23.405Z,40.20
2023-03-06T21:07:56.557Z,40.50
2023-03-06T21:10:30.688Z,41.40
2023-03-06T21:13:02.761Z,40.50
2023-03-06T21:15:35.033Z,39.60
2023-03-06T21:18:07.839Z,37.90
2023-03-06T21:20:42.687Z,39.50
2023-03-06T21:23:15.524Z,38.80
2023-03-06T21:25:52.864Z,38.50
2023-03-06T21:28:25.223Z,35.50
2023-03-06T21:30:57.729Z,36.90
2023-03-06T21:33:30.465Z,37.60
2023-03-06T21:36:03.549Z,39.10
2023-03-06T21:38:36.753Z,37.70
2023-03-06T21:41:15.016Z,38.10
2023-03-06T21:43:47.609Z,37.80
2023-03-06T21:46:19.659Z,41.00
2023-03-06T21:48:52.156Z,39.00
2023-03-06T21:51:25.542Z,38.20
2023-03-06T21:53:58.958Z,40.00
2023-03-06T21:56:33.360Z,37.40
2023-03-06T21:59:05.518Z,39.70
2023-03-06T22:01:37.569Z,41.70
2023-03-06T22:04:09.930Z,42.00
2023-03-06T22:06:41.908Z,41.40
2023-03-06T22:09:16.068Z,40.60
2023-03-06T22:11:47.979Z,37.40
2023-03-06T22:14:19.776Z,34.90
2023-03-06T22:16:53.280Z,35.10
2023-03-06T22:19:25.074Z,35.70
2023-03-06T22:21:59.426Z,33.60
2023-03-06T22:24:31.708Z,31.70
2023-03-06T22:27:03.691Z,33.40
2023-03-06T22:29:36.071Z,33.10
2023-03-06T22:32:08.722Z,30.70
2023-03-06T22:34:40.803Z,31.20
2023-03-06T22:37:12.775Z,31.60
2023-03-06T22:39:45.093Z,31.80
2023-03-06T22:42:17.146Z,33.30
2023-03-06T22:44:49.126Z,31.20
2023-03-06T22:47:21.150Z,32.30
2023-03-06T22:49:52.896Z,33.50
2023-03-06T22:52:24.716Z,33.60
2023-03-06T22:54:56.452Z,34.40
2023-03-06T22:57:29.957Z,29.40
2023-03-06T23:00:01.904Z,31.90
2023-03-06T23:02:38.054Z,33.50
2023-03-06T23:05:11.184Z,33.00
2023-03-06T23:07:43.252Z,33.20
2023-03-06T23:10:15.330Z,33.20
2023-03-06T23:13:05.470Z,31.80
2023-03-06T23:15:56.457Z,32.60
2023-03-06T23:18:47.737Z,29.70
2023-03-06T23:21:38.054Z,31.50
2023-03-06T23:24:28.647Z,29.20
2023-03-06T23:27:00.682Z,31.70
2023-03-06T23:29:32.731Z,30.00
2023-03-06T23:32:04.878Z,29.90
2023-03-06T23:34:37.325Z,28.00
2023-03-06T23:37:09.161Z,30.70
2023-03-06T23:39:41.798Z,28.80
2023-03-06T23:42:13.727Z,29.50
2023-03-06T23:44:45.656Z,30.10
2023-03-06T23:47:20.107Z,23.50
2023-03-06T23:49:52.095Z,29.60
2023-03-06T23:52:24.203Z,30.20
2023-03-06T23:54:56.116Z,30.90
2023-03-06T23:57:27.981Z,29.80
